Terminal Aerodrome Forecast
Issued by NWS

Home | Current Version | Previous Version | Text Only | Print | Product List | Glossary Off
Versions: 1 2 3 4 5 6 7 8 9 10 11 12 13 14 15 16 17 18 19 20 21 22 23

000
FTUS45 KGGW 171100
TAFOLF
TAF
KOLF 171135Z 1712/1812 VRB04KT P6SM BKN110
     FM171500 26009KT P6SM BKN090
     FM171900 27014KT P6SM BKN070
     FM180300 28008KT P6SM BKN070=

USA.gov is the U.S. government's official web portal to all federal, state and local government web resources and services.